Time;durP1;ratioP1;P1;durP2;ratioP2;P2;SDS_P1;SDS_P2;PMS_P1;PMS_P2;Temp;Humidity;BMP_temperature;BMP_pressure;BME280_temperature;BME280_humidity;BME280_pressure;Samples;Min_cycle;Max_cycle;Signal;HPM_P1;HPM_P2
2024/03/17 00:00:31;;;;;;;13.50;7.80;;;8.50;99.90;;;;;;5045438;28;20025;-73
2024/03/17 00:02:57;;;;;;;11.85;7.82;;;8.40;99.90;;;;;;5046603;28;20110;-74
2024/03/17 00:05:23;;;;;;;11.63;7.38;;;8.40;99.90;;;;;;5047007;28;20104;-75
2024/03/17 00:07:48;;;;;;;15.20;7.50;;;8.30;99.90;;;;;;5046851;28;20563;-76
2024/03/17 00:10:15;;;;;;;13.73;8.02;;;8.30;99.90;;;;;;5044488;28;20032;-76
2024/03/17 00:12:41;;;;;;;15.10;8.00;;;8.40;99.90;;;;;;5043912;28;20525;-75
2024/03/17 00:15:07;;;;;;;13.55;8.45;;;8.40;99.90;;;;;;5045071;28;20112;-75
2024/03/17 00:17:34;;;;;;;12.15;8.52;;;8.50;99.90;;;;;;5046588;28;20401;-75
2024/03/17 00:20:08;;;;;;;14.98;8.75;;;8.50;99.90;;;;;;5045620;28;20036;-75
2024/03/17 00:22:39;;;;;;;12.05;7.68;;;8.50;99.90;;;;;;5046002;28;20079;-74
2024/03/17 00:25:08;;;;;;;16.23;8.85;;;8.60;99.90;;;;;;5046933;28;20021;-75
2024/03/17 00:27:39;;;;;;;15.68;9.32;;;8.50;99.90;;;;;;5046113;28;20124;-76
2024/03/17 00:30:10;;;;;;;19.58;9.48;;;8.60;99.90;;;;;;5045629;28;20024;-76
2024/03/17 00:32:35;;;;;;;16.83;9.02;;;8.60;99.90;;;;;;5045837;28;20079;-75
2024/03/17 00:35:01;;;;;;;16.63;9.70;;;8.60;99.90;;;;;;5045130;28;20017;-74
2024/03/17 00:37:28;;;;;;;17.38;10.45;;;8.60;99.90;;;;;;5045886;28;20087;-76
2024/03/17 00:39:54;;;;;;;19.80;10.80;;;8.60;99.90;;;;;;5045634;28;20021;-74
2024/03/17 00:42:19;;;;;;;14.65;10.38;;;8.60;99.90;;;;;;5044053;28;20074;-74
2024/03/17 00:44:45;;;;;;;20.17;12.07;;;8.60;99.90;;;;;;5044893;28;20075;-74
2024/03/17 00:47:11;;;;;;;23.85;12.20;;;8.60;99.90;;;;;;5045811;28;20052;-74
2024/03/17 00:49:37;;;;;;;23.35;12.07;;;8.50;99.90;;;;;;5045372;28;20061;-74
2024/03/17 00:52:02;;;;;;;20.70;11.27;;;8.50;99.90;;;;;;5046010;28;20047;-76
2024/03/17 00:54:28;;;;;;;16.95;11.48;;;8.50;99.90;;;;;;5044805;28;20408;-75
2024/03/17 00:56:54;;;;;;;17.35;11.13;;;8.50;99.90;;;;;;5045577;28;20489;-75
2024/03/17 00:59:20;;;;;;;21.92;11.73;;;8.50;99.90;;;;;;5044789;28;20005;-74
2024/03/17 01:01:46;;;;;;;16.90;9.77;;;8.40;99.90;;;;;;5045638;28;20034;-75
2024/03/17 01:04:12;;;;;;;17.35;10.45;;;8.40;99.90;;;;;;5046174;28;20013;-75
2024/03/17 01:06:40;;;;;;;15.93;11.20;;;8.40;99.90;;;;;;5045161;28;20402;-73
2024/03/17 01:09:06;;;;;;;20.70;10.90;;;8.50;99.90;;;;;;5045365;28;20091;-74
2024/03/17 01:11:32;;;;;;;17.70;11.75;;;8.50;99.90;;;;;;5044574;28;20454;-74
2024/03/17 01:13:58;;;;;;;19.25;11.35;;;8.50;99.90;;;;;;5044629;28;20039;-75
2024/03/17 01:16:24;;;;;;;18.17;13.07;;;8.50;99.90;;;;;;5044477;28;20013;-74
2024/03/17 01:18:49;;;;;;;19.58;13.00;;;8.40;99.90;;;;;;5045620;28;20040;-75
2024/03/17 01:21:15;;;;;;;18.48;13.60;;;8.40;99.90;;;;;;5044280;28;20021;-74
2024/03/17 01:23:41;;;;;;;22.45;13.02;;;8.40;99.90;;;;;;5044505;28;20013;-75
2024/03/17 01:26:06;;;;;;;19.08;13.05;;;8.40;99.90;;;;;;5044385;28;20020;-74
2024/03/17 01:28:32;;;;;;;20.50;13.73;;;8.40;99.90;;;;;;5044016;28;20032;-74
2024/03/17 01:30:58;;;;;;;22.42;13.63;;;8.30;99.90;;;;;;5044257;28;20090;-74
2024/03/17 01:33:24;;;;;;;21.75;13.32;;;8.20;99.90;;;;;;5044648;28;20054;-75
2024/03/17 01:35:49;;;;;;;24.92;14.70;;;8.30;99.90;;;;;;5044771;28;20029;-75
2024/03/17 01:38:15;;;;;;;20.02;13.85;;;8.30;99.90;;;;;;5043581;28;20025;-73
2024/03/17 01:40:41;;;;;;;23.58;14.93;;;8.30;99.90;;;;;;5042421;28;20021;-74
2024/03/17 01:43:11;;;;;;;22.55;14.43;;;8.40;99.90;;;;;;5044857;28;20029;-74
2024/03/17 01:45:37;;;;;;;19.92;14.15;;;8.40;99.90;;;;;;5043514;28;20117;-74
2024/03/17 01:48:06;;;;;;;23.73;14.23;;;8.40;99.90;;;;;;5044688;28;20441;-74
2024/03/17 01:50:35;;;;;;;23.05;14.45;;;8.50;99.90;;;;;;5044550;28;20150;-74
2024/03/17 01:53:04;;;;;;;18.90;13.35;;;8.50;99.90;;;;;;5043782;28;20063;-75
2024/03/17 01:55:31;;;;;;;20.98;14.27;;;8.50;99.90;;;;;;5042734;28;20032;-74
2024/03/17 01:57:57;;;;;;;23.52;14.20;;;8.50;99.90;;;;;;5042985;28;20017;-74
2024/03/17 02:00:23;;;;;;;21.23;13.70;;;8.50;99.90;;;;;;5045029;28;20025;-74
2024/03/17 02:02:50;;;;;;;25.02;13.88;;;8.50;99.90;;;;;;5044803;28;20024;-74
2024/03/17 02:05:16;;;;;;;22.60;14.77;;;8.50;99.90;;;;;;5043174;28;20044;-74
2024/03/17 02:07:42;;;;;;;22.20;14.80;;;8.40;99.90;;;;;;5043882;28;20025;-74
2024/03/17 02:10:08;;;;;;;22.25;14.75;;;8.40;99.90;;;;;;5043370;28;20091;-74
2024/03/17 02:12:35;;;;;;;21.25;14.75;;;8.30;99.90;;;;;;5043359;28;20023;-75
2024/03/17 02:15:05;;;;;;;25.65;16.83;;;8.20;99.90;;;;;;5045068;28;20064;-73
2024/03/17 02:17:33;;;;;;;26.15;16.27;;;8.30;99.90;;;;;;5043009;28;20074;-74
2024/03/17 02:19:59;;;;;;;24.67;15.90;;;8.30;99.90;;;;;;5045398;28;20461;-73
2024/03/17 02:22:27;;;;;;;23.10;15.95;;;8.40;99.90;;;;;;5043287;28;20024;-74
2024/03/17 02:24:53;;;;;;;22.67;14.52;;;8.40;99.90;;;;;;5044588;28;20021;-74
2024/03/17 02:27:19;;;;;;;26.35;16.20;;;8.40;99.90;;;;;;5043266;28;20083;-74
2024/03/17 02:29:45;;;;;;;26.27;16.40;;;8.40;99.90;;;;;;5044530;28;20037;-74
2024/03/17 02:32:11;;;;;;;20.50;14.20;;;8.40;99.90;;;;;;5044833;28;20017;-74
2024/03/17 02:34:38;;;;;;;24.05;15.32;;;8.40;99.90;;;;;;5043909;28;20112;-75
2024/03/17 02:37:06;;;;;;;23.98;16.55;;;8.40;99.90;;;;;;5048509;28;20016;-74
2024/03/17 02:39:34;;;;;;;28.10;16.85;;;8.30;99.90;;;;;;5047814;28;20040;-75
2024/03/17 02:42:08;;;;;;;22.42;14.82;;;8.40;99.90;;;;;;5048485;28;20082;-76
2024/03/17 02:44:35;;;;;;;29.45;17.00;;;8.40;99.90;;;;;;5044328;28;20092;-73
2024/03/17 02:47:03;;;;;;;26.77;17.50;;;8.40;99.90;;;;;;5046357;28;20036;-73
2024/03/17 02:49:36;;;;;;;24.70;17.20;;;8.50;99.90;;;;;;5047680;28;20055;-74
2024/03/17 02:52:04;;;;;;;24.67;16.67;;;8.40;99.90;;;;;;5048372;28;20508;-74
2024/03/17 02:54:30;;;;;;;27.63;18.10;;;8.50;99.90;;;;;;5046821;28;20025;-74
2024/03/17 02:56:56;;;;;;;26.27;17.08;;;8.50;99.90;;;;;;5047865;28;20086;-74
2024/03/17 02:59:22;;;;;;;26.92;17.63;;;8.50;99.90;;;;;;5048664;28;20376;-75
2024/03/17 03:01:47;;;;;;;30.73;17.98;;;8.50;99.90;;;;;;5047936;28;20040;-73
2024/03/17 03:04:13;;;;;;;29.25;17.40;;;8.60;99.90;;;;;;5045588;28;20025;-75
2024/03/17 03:06:39;;;;;;;29.25;17.35;;;8.50;99.90;;;;;;5047670;28;20031;-74
2024/03/17 03:09:13;;;;;;;24.30;18.63;;;8.50;99.90;;;;;;5047449;28;20041;-74
2024/03/17 03:11:42;;;;;;;23.27;16.23;;;8.60;99.90;;;;;;5047967;28;20469;-73
2024/03/17 03:14:08;;;;;;;26.70;16.30;;;8.60;99.90;;;;;;5048436;28;20100;-73
2024/03/17 03:16:34;;;;;;;26.45;16.50;;;8.50;99.90;;;;;;5048496;28;20029;-74
2024/03/17 03:19:00;;;;;;;26.70;17.20;;;8.60;99.90;;;;;;5047185;28;20044;-74
2024/03/17 03:21:26;;;;;;;23.48;17.40;;;8.70;99.90;;;;;;5047165;28;20369;-74
2024/03/17 03:23:52;;;;;;;27.88;17.98;;;8.60;99.90;;;;;;5047867;28;20051;-74
2024/03/17 03:26:18;;;;;;;28.70;18.38;;;8.70;99.90;;;;;;5047955;28;20112;-74
2024/03/17 03:28:44;;;;;;;24.20;17.50;;;8.70;99.90;;;;;;5047831;28;20033;-74
2024/03/17 03:31:13;;;;;;;26.23;16.63;;;8.70;99.90;;;;;;5047011;28;20029;-75
2024/03/17 03:33:40;;;;;;;30.15;18.10;;;8.70;99.90;;;;;;5047168;28;20068;-74
2024/03/17 03:36:13;;;;;;;24.50;16.80;;;8.70;99.90;;;;;;5046156;28;20028;-73
2024/03/17 03:38:39;;;;;;;23.05;16.65;;;8.70;99.90;;;;;;5045483;28;20032;-73
2024/03/17 03:41:10;;;;;;;30.73;18.33;;;8.60;99.90;;;;;;5046551;28;20021;-73
2024/03/17 03:43:36;;;;;;;24.80;16.45;;;8.60;99.90;;;;;;5047773;28;20096;-73
2024/03/17 03:46:03;;;;;;;26.85;17.10;;;8.50;99.90;;;;;;5045301;28;20029;-73
2024/03/17 03:48:28;;;;;;;28.48;18.45;;;8.50;99.90;;;;;;5047949;28;20049;-73
2024/03/17 03:50:54;;;;;;;29.10;17.50;;;8.50;99.90;;;;;;5046847;28;20100;-73
2024/03/17 03:53:20;;;;;;;21.15;15.77;;;8.40;99.90;;;;;;5047313;28;20036;-73
2024/03/17 03:55:46;;;;;;;25.23;16.70;;;8.40;99.90;;;;;;5046424;28;20025;-74
2024/03/17 03:58:12;;;;;;;27.63;18.10;;;8.40;99.90;;;;;;5039567;28;20029;-73
2024/03/17 04:00:39;;;;;;;21.83;16.48;;;8.40;99.90;;;;;;5044627;28;20147;-74
2024/03/17 04:03:05;;;;;;;24.95;16.10;;;8.40;99.90;;;;;;5047322;28;20100;-74
2024/03/17 04:05:31;;;;;;;23.48;16.50;;;8.40;99.90;;;;;;5046655;28;20032;-74
2024/03/17 04:07:58;;;;;;;25.08;16.27;;;8.50;99.90;;;;;;5046027;28;20033;-73
2024/03/17 04:10:24;;;;;;;24.02;15.20;;;8.40;99.90;;;;;;5046260;28;20100;-74
2024/03/17 04:12:51;;;;;;;22.65;15.43;;;8.30;99.90;;;;;;5046957;28;20036;-74
2024/03/17 04:15:17;;;;;;;25.05;14.90;;;8.40;99.90;;;;;;5045054;28;20032;-74
2024/03/17 04:17:43;;;;;;;25.35;15.95;;;8.40;99.90;;;;;;5046865;28;20563;-73
2024/03/17 04:20:10;;;;;;;25.15;15.68;;;8.40;99.90;;;;;;5047170;28;20123;-73
2024/03/17 04:22:38;;;;;;;24.17;16.10;;;8.40;99.90;;;;;;5046276;28;20029;-73
2024/03/17 04:25:05;;;;;;;21.95;15.15;;;8.40;99.90;;;;;;5047338;28;20029;-74
2024/03/17 04:27:30;;;;;;;21.48;14.98;;;8.40;99.90;;;;;;5046663;28;20033;-74
2024/03/17 04:29:58;;;;;;;21.00;14.30;;;8.40;99.90;;;;;;5045889;28;20385;-74
2024/03/17 04:32:24;;;;;;;21.23;14.43;;;8.40;99.90;;;;;;5046266;28;20092;-73
2024/03/17 04:34:51;;;;;;;24.58;15.75;;;8.30;99.90;;;;;;5045252;28;20025;-73
2024/03/17 04:37:17;;;;;;;22.42;15.52;;;8.30;99.90;;;;;;5046458;28;20155;-73
2024/03/17 04:39:45;;;;;;;21.75;14.23;;;8.20;99.90;;;;;;5044948;28;20104;-75
2024/03/17 04:42:14;;;;;;;22.90;14.30;;;8.20;99.90;;;;;;5046116;28;20025;-74
2024/03/17 04:44:40;;;;;;;22.35;14.65;;;8.20;99.90;;;;;;5046731;28;20028;-74
2024/03/17 04:47:06;;;;;;;22.15;14.75;;;8.10;99.90;;;;;;5045768;28;20500;-74
2024/03/17 04:49:43;;;;;;;20.23;13.57;;;8.10;99.90;;;;;;5046157;28;20062;-74
2024/03/17 04:52:10;;;;;;;22.85;15.07;;;8.10;99.90;;;;;;5045827;28;20017;-77
2024/03/17 04:54:35;;;;;;;22.52;15.43;;;8.10;99.90;;;;;;5045912;28;20037;-75
2024/03/17 04:57:02;;;;;;;24.98;15.32;;;8.10;99.90;;;;;;5045961;28;20025;-75
2024/03/17 04:59:28;;;;;;;21.40;14.85;;;8.10;99.90;;;;;;5045694;28;20066;-74
2024/03/17 05:01:54;;;;;;;22.65;14.65;;;8.10;99.90;;;;;;5044647;28;20017;-74
2024/03/17 05:04:20;;;;;;;18.88;13.25;;;8.00;99.90;;;;;;5046122;28;20496;-74
2024/03/17 05:06:49;;;;;;;21.52;14.55;;;8.00;99.90;;;;;;5045625;28;20036;-75
2024/03/17 05:09:19;;;;;;;22.13;14.10;;;8.00;99.90;;;;;;5045353;28;20083;-74
2024/03/17 05:11:45;;;;;;;21.35;13.88;;;8.00;99.90;;;;;;5044426;28;20025;-75
2024/03/17 05:14:11;;;;;;;22.45;14.88;;;8.00;99.90;;;;;;5046248;28;20039;-74
2024/03/17 05:16:37;;;;;;;25.10;14.80;;;8.10;99.90;;;;;;5044763;28;20150;-75
2024/03/17 05:19:03;;;;;;;22.17;14.02;;;8.00;99.90;;;;;;5045887;28;20104;-75
2024/03/17 05:21:32;;;;;;;23.48;15.20;;;8.00;99.90;;;;;;5045545;28;20029;-74
2024/03/17 05:24:00;;;;;;;21.52;15.07;;;8.00;99.90;;;;;;5046229;28;20092;-74
2024/03/17 05:26:26;;;;;;;22.33;16.42;;;8.00;99.90;;;;;;5045356;28;20025;-73
2024/03/17 05:28:53;;;;;;;28.67;15.25;;;7.90;99.90;;;;;;5045554;28;20051;-75
2024/03/17 05:31:21;;;;;;;26.48;17.27;;;7.90;99.90;;;;;;5045679;28;20078;-76
2024/03/17 05:33:47;;;;;;;25.13;14.43;;;7.90;99.90;;;;;;5045458;28;20025;-75
2024/03/17 05:36:13;;;;;;;24.77;16.65;;;7.80;99.90;;;;;;5046168;28;20025;-75
2024/03/17 05:38:38;;;;;;;23.35;15.50;;;7.80;99.90;;;;;;5045585;28;20017;-74
2024/03/17 05:41:06;;;;;;;22.02;15.45;;;7.80;99.90;;;;;;5044364;28;20025;-74
2024/03/17 05:43:35;;;;;;;22.17;14.45;;;7.80;99.90;;;;;;5045905;28;20152;-76
2024/03/17 05:46:02;;;;;;;22.42;15.45;;;7.70;99.90;;;;;;5045012;28;20017;-75
2024/03/17 05:48:31;;;;;;;23.08;15.07;;;7.60;99.90;;;;;;5044256;28;20553;-75
2024/03/17 05:50:57;;;;;;;23.00;15.13;;;7.70;99.90;;;;;;5044453;28;20025;-75
2024/03/17 05:53:24;;;;;;;20.98;14.07;;;7.70;99.90;;;;;;5045816;28;20067;-74
2024/03/17 05:55:50;;;;;;;22.02;14.68;;;7.70;99.90;;;;;;5043569;28;20017;-73
2024/03/17 05:58:16;;;;;;;20.77;14.05;;;7.70;99.90;;;;;;5044292;28;20432;-75
2024/03/17 06:00:41;;;;;;;22.52;14.63;;;7.60;99.90;;;;;;5044552;28;20086;-75
2024/03/17 06:03:08;;;;;;;20.35;14.52;;;7.60;99.90;;;;;;5044642;28;20630;-76
2024/03/17 06:05:40;;;;;;;21.40;13.88;;;7.60;99.90;;;;;;5044313;28;20024;-75
2024/03/17 06:08:08;;;;;;;19.23;14.07;;;7.60;99.90;;;;;;5045213;28;20029;-74
2024/03/17 06:10:35;;;;;;;26.73;14.50;;;7.60;99.90;;;;;;5048125;28;20032;-75
2024/03/17 06:13:01;;;;;;;19.95;13.73;;;7.60;99.90;;;;;;5048940;28;20104;-74
2024/03/17 06:15:27;;;;;;;22.98;14.15;;;7.60;99.90;;;;;;5048155;28;20500;-74
2024/03/17 06:17:54;;;;;;;23.20;15.43;;;7.60;99.90;;;;;;5049202;28;20033;-75
2024/03/17 06:20:23;;;;;;;21.95;13.70;;;7.60;99.90;;;;;;5047773;28;20021;-74
2024/03/17 06:22:49;;;;;;;22.08;14.93;;;7.60;99.90;;;;;;5047402;28;20477;-74
2024/03/17 06:25:15;;;;;;;19.60;13.48;;;7.60;99.90;;;;;;5047976;28;20359;-73
2024/03/17 06:27:42;;;;;;;24.25;13.68;;;7.70;99.90;;;;;;5049122;28;20036;-73
2024/03/17 06:30:13;;;;;;;21.35;13.23;;;7.60;99.90;;;;;;5048461;28;20017;-74
2024/03/17 06:32:45;;;;;;;20.27;13.65;;;7.60;99.90;;;;;;5048732;28;20505;-76
2024/03/17 06:35:15;;;;;;;22.70;14.57;;;7.60;99.90;;;;;;5048375;28;20025;-74
2024/03/17 06:37:44;;;;;;;18.70;12.73;;;7.70;99.90;;;;;;5048268;28;20058;-76
2024/03/17 06:40:14;;;;;;;19.90;13.52;;;7.70;99.90;;;;;;5048806;28;20451;-74
2024/03/17 06:42:39;;;;;;;22.10;14.23;;;7.80;99.90;;;;;;5048584;28;20029;-74
2024/03/17 06:45:08;;;;;;;30.92;13.55;;;7.80;99.90;;;;;;5048493;28;20063;-76
2024/03/17 06:47:35;;;;;;;19.50;12.88;;;7.80;99.90;;;;;;5048375;28;20033;-74
2024/03/17 06:50:04;;;;;;;20.67;13.52;;;7.80;99.90;;;;;;5048883;28;20043;-74
2024/03/17 06:52:31;;;;;;;17.15;13.05;;;7.80;99.90;;;;;;5048101;28;20111;-74
2024/03/17 06:54:58;;;;;;;20.17;12.93;;;8.00;99.90;;;;;;5047558;28;20100;-74
2024/03/17 06:57:24;;;;;;;17.20;12.25;;;8.10;99.90;;;;;;5048728;28;20028;-76
2024/03/17 06:59:50;;;;;;;16.02;12.77;;;8.20;99.90;;;;;;5048156;28;20078;-73
2024/03/17 07:02:18;;;;;;;19.70;12.23;;;8.30;99.90;;;;;;5048356;28;20481;-73
2024/03/17 07:04:44;;;;;;;17.55;11.00;;;8.40;99.90;;;;;;5047971;28;20025;-76
2024/03/17 07:07:12;;;;;;;18.92;11.85;;;8.40;99.90;;;;;;5048162;28;20094;-76
2024/03/17 07:09:38;;;;;;;19.63;11.88;;;8.40;99.90;;;;;;5047511;28;20404;-74
2024/03/17 07:12:05;;;;;;;18.92;10.93;;;8.50;99.90;;;;;;5048178;28;20033;-77
2024/03/17 07:14:31;;;;;;;14.68;10.70;;;8.60;99.90;;;;;;5048404;28;20032;-74
2024/03/17 07:16:57;;;;;;;19.85;10.95;;;8.60;99.90;;;;;;5048316;28;20085;-73
2024/03/17 07:19:23;;;;;;;15.73;10.27;;;8.60;99.90;;;;;;5047567;28;20029;-74
2024/03/17 07:21:48;;;;;;;12.13;10.07;;;8.70;99.90;;;;;;5047199;28;20130;-74
2024/03/17 07:24:14;;;;;;;15.82;10.18;;;8.70;99.90;;;;;;5048225;28;20032;-73
2024/03/17 07:26:40;;;;;;;14.02;9.65;;;8.80;99.90;;;;;;5047827;28;20496;-74
2024/03/17 07:29:05;;;;;;;13.63;9.70;;;8.90;99.90;;;;;;5046329;28;20033;-75
2024/03/17 07:31:32;;;;;;;15.23;10.65;;;8.90;99.90;;;;;;5047579;28;20025;-74
2024/03/17 07:33:57;;;;;;;14.40;9.27;;;9.10;99.90;;;;;;5047549;28;20032;-74
2024/03/17 07:36:23;;;;;;;13.30;10.38;;;9.10;99.90;;;;;;5046840;28;20029;-74
2024/03/17 07:38:49;;;;;;;13.88;9.63;;;9.20;99.90;;;;;;5047719;28;20025;-74
2024/03/17 07:41:14;;;;;;;12.40;9.20;;;9.20;99.90;;;;;;5045959;28;20048;-76
2024/03/17 07:43:40;;;;;;;13.73;9.57;;;9.20;99.90;;;;;;5047522;28;20021;-76
2024/03/17 07:46:09;;;;;;;14.68;9.20;;;9.20;99.90;;;;;;5047151;28;20507;-74
2024/03/17 07:48:36;;;;;;;10.55;8.60;;;9.20;99.90;;;;;;5046189;28;20553;-75
2024/03/17 07:51:04;;;;;;;18.10;10.15;;;9.30;99.90;;;;;;5046378;28;20017;-74
2024/03/17 07:53:31;;;;;;;12.30;9.48;;;9.50;99.90;;;;;;5047959;28;20021;-75
2024/03/17 07:56:09;;;;;;;15.10;9.95;;;9.60;99.90;;;;;;5047635;28;20382;-74
2024/03/17 07:58:37;;;;;;;13.05;9.35;;;9.60;99.90;;;;;;5045596;28;20033;-74
2024/03/17 08:01:05;;;;;;;13.63;8.68;;;9.60;99.90;;;;;;5046938;28;20009;-76
2024/03/17 08:03:33;;;;;;;11.70;8.48;;;9.60;99.90;;;;;;5046365;28;20047;-75
2024/03/17 08:06:00;;;;;;;12.77;9.27;;;9.60;99.90;;;;;;5046205;28;20387;-76
2024/03/17 08:08:27;;;;;;;12.23;9.82;;;9.70;99.90;;;;;;5047620;28;20029;-76
2024/03/17 08:10:53;;;;;;;9.98;8.32;;;9.80;99.90;;;;;;5045992;28;20024;-73
2024/03/17 08:13:19;;;;;;;11.80;8.90;;;9.90;99.90;;;;;;5046533;28;20029;-79
2024/03/17 08:15:46;;;;;;;11.68;8.93;;;10.00;99.90;;;;;;5046083;28;20024;-73
2024/03/17 08:18:13;;;;;;;14.88;10.40;;;10.00;99.90;;;;;;5046595;28;20037;-79
2024/03/17 08:20:43;;;;;;;13.43;9.13;;;10.10;99.90;;;;;;5046570;28;20017;-76
2024/03/17 08:23:10;;;;;;;12.00;8.95;;;10.20;99.90;;;;;;5046805;28;20028;-76
2024/03/17 08:25:37;;;;;;;10.95;8.75;;;10.20;99.90;;;;;;5046795;28;20048;-75
2024/03/17 08:28:03;;;;;;;13.57;8.07;;;10.30;99.90;;;;;;5045606;28;20045;-75
2024/03/17 08:30:30;;;;;;;11.82;8.23;;;10.30;99.90;;;;;;5044521;28;20032;-74
2024/03/17 08:32:56;;;;;;;13.45;8.57;;;10.30;99.90;;;;;;5046975;28;20028;-74
2024/03/17 08:35:22;;;;;;;13.57;8.15;;;10.40;99.90;;;;;;5045607;28;20020;-77
2024/03/17 08:37:48;;;;;;;9.93;8.27;;;10.50;99.90;;;;;;5046671;28;20028;-76
2024/03/17 08:40:13;;;;;;;10.65;8.68;;;10.50;99.90;;;;;;5043746;28;20389;-76
2024/03/17 08:42:40;;;;;;;12.15;8.43;;;10.60;99.90;;;;;;5045997;28;20389;-78
2024/03/17 08:45:06;;;;;;;13.80;7.82;;;10.90;99.90;;;;;;5045038;28;20124;-76
2024/03/17 08:47:32;;;;;;;12.93;8.85;;;10.90;99.90;;;;;;5046742;28;20032;-76
2024/03/17 08:50:03;;;;;;;13.02;8.90;;;11.00;99.90;;;;;;5045062;28;20158;-78
2024/03/17 08:52:31;;;;;;;14.77;8.73;;;11.20;99.90;;;;;;5045697;28;20078;-77
2024/03/17 08:54:58;;;;;;;10.05;7.55;;;11.20;99.90;;;;;;5045786;28;20059;-74
2024/03/17 08:57:24;;;;;;;11.73;8.80;;;11.30;99.90;;;;;;5046349;28;20389;-76
2024/03/17 08:59:53;;;;;;;10.57;7.63;;;11.50;99.90;;;;;;5046297;28;20025;-76
2024/03/17 09:02:20;;;;;;;14.02;8.23;;;11.60;99.90;;;;;;5045343;28;20041;-75
2024/03/17 09:04:47;;;;;;;10.43;8.30;;;11.60;99.90;;;;;;5046473;28;20055;-77
2024/03/17 09:07:15;;;;;;;10.70;8.40;;;11.70;99.90;;;;;;5045432;28;20033;-75
2024/03/17 09:09:41;;;;;;;9.02;6.57;;;11.80;99.90;;;;;;5043661;28;20024;-76
2024/03/17 09:12:09;;;;;;;12.07;8.00;;;11.80;99.90;;;;;;5044847;28;20013;-78
2024/03/17 09:14:35;;;;;;;8.50;6.95;;;11.90;99.90;;;;;;5045844;28;20040;-78
2024/03/17 09:17:00;;;;;;;12.60;6.28;;;12.00;99.90;;;;;;5045894;28;20029;-75
2024/03/17 09:19:28;;;;;;;10.68;6.95;;;12.20;99.90;;;;;;5046160;28;20017;-77
2024/03/17 09:21:55;;;;;;;12.25;7.43;;;12.30;99.90;;;;;;5043682;28;20470;-77
2024/03/17 09:24:20;;;;;;;10.50;6.60;;;12.40;99.90;;;;;;5046352;28;20009;-78
2024/03/17 09:26:47;;;;;;;12.52;7.03;;;12.40;99.90;;;;;;5045419;28;20071;-77
2024/03/17 09:29:15;;;;;;;10.88;6.70;;;12.50;99.90;;;;;;5044829;28;20037;-76
2024/03/17 09:31:41;;;;;;;10.57;6.47;;;12.60;99.90;;;;;;5045038;28;20063;-77
2024/03/17 09:34:07;;;;;;;8.15;5.97;;;12.80;99.90;;;;;;5045589;28;20459;-75
2024/03/17 09:36:33;;;;;;;13.50;6.65;;;13.00;99.90;;;;;;5045715;28;20028;-76
2024/03/17 09:39:00;;;;;;;8.45;5.97;;;13.00;99.90;;;;;;5045260;28;20017;-77
2024/03/17 09:41:27;;;;;;;8.88;6.38;;;13.00;99.90;;;;;;5044409;28;20100;-76
2024/03/17 09:43:57;;;;;;;11.43;6.35;;;13.10;99.90;;;;;;5045397;28;20017;-77
2024/03/17 09:46:28;;;;;;;8.27;5.70;;;13.10;99.90;;;;;;5044379;28;20086;-77
2024/03/17 09:48:54;;;;;;;6.60;4.90;;;13.30;99.90;;;;;;5045478;28;20504;-77
2024/03/17 09:51:25;;;;;;;10.48;5.97;;;13.30;99.90;;;;;;5045091;28;20092;-77
2024/03/17 09:53:51;;;;;;;6.53;5.85;;;13.30;99.90;;;;;;5045096;28;20029;-78
2024/03/17 09:56:20;;;;;;;7.85;5.88;;;13.70;99.90;;;;;;5045767;28;20029;-74
2024/03/17 09:58:47;;;;;;;9.23;5.85;;;13.90;99.90;;;;;;5044830;28;20049;-74
2024/03/17 10:01:13;;;;;;;10.00;5.63;;;14.00;99.90;;;;;;5043023;28;20029;-78
2024/03/17 10:03:54;;;;;;;7.18;5.40;;;14.00;99.90;;;;;;5045195;28;20009;-77
2024/03/17 10:06:21;;;;;;;8.07;5.68;;;14.00;99.90;;;;;;5044852;28;20170;-77
2024/03/17 10:08:51;;;;;;;7.80;6.28;;;13.90;99.90;;;;;;5044740;28;20036;-77
2024/03/17 10:11:21;;;;;;;9.70;6.22;;;13.80;99.90;;;;;;5044310;28;20516;-75
2024/03/17 10:13:59;;;;;;;11.60;5.72;;;13.80;99.90;;;;;;5044100;28;20044;-77
2024/03/17 10:16:27;;;;;;;7.45;5.45;;;14.10;99.90;;;;;;5044953;28;20052;-77
2024/03/17 10:19:13;;;;;;;7.28;5.97;;;14.10;99.90;;;;;;5044863;28;20363;-76
2024/03/17 10:21:44;;;;;;;11.43;6.05;;;14.00;99.90;;;;;;5042528;28;20021;-78
2024/03/17 10:24:12;;;;;;;10.85;6.18;;;14.10;99.90;;;;;;5042021;28;20032;-77
2024/03/17 10:26:50;;;;;;;6.82;5.72;;;14.20;99.90;;;;;;5044235;28;20033;-76
2024/03/17 10:29:30;;;;;;;7.38;5.22;;;14.30;99.90;;;;;;5044140;28;20062;-78
2024/03/17 10:31:59;;;;;;;8.57;5.22;;;14.30;99.90;;;;;;5042687;28;20017;-77
2024/03/17 10:34:26;;;;;;;9.43;5.28;;;14.40;99.90;;;;;;5045554;28;20020;-77
2024/03/17 10:37:14;;;;;;;10.35;5.28;;;14.30;99.90;;;;;;5042057;28;20029;-81
2024/03/17 10:39:42;;;;;;;6.22;5.03;;;14.50;99.90;;;;;;5041993;28;20021;-77
2024/03/17 10:42:10;;;;;;;9.40;5.13;;;14.80;99.90;;;;;;5044541;28;20649;-79
2024/03/17 10:44:38;;;;;;;7.88;4.97;;;14.90;99.90;;;;;;5042823;28;20025;-79
2024/03/17 10:47:09;;;;;;;8.85;5.70;;;15.00;99.90;;;;;;5044582;28;20183;-78
2024/03/17 10:49:37;;;;;;;8.23;4.87;;;15.20;99.90;;;;;;5042155;28;20513;-78
2024/03/17 10:52:05;;;;;;;11.15;5.25;;;15.30;99.90;;;;;;5044332;28;20358;-75
2024/03/17 10:54:33;;;;;;;5.90;4.88;;;15.20;99.90;;;;;;5043260;28;20021;-78
2024/03/17 10:57:30;;;;;;;9.75;5.50;;;15.10;99.90;;;;;;5045859;28;20025;-79
2024/03/17 10:59:58;;;;;;;6.68;5.53;;;15.00;99.90;;;;;;5047992;28;20029;-77
2024/03/17 11:02:27;;;;;;;8.93;4.95;;;15.00;99.90;;;;;;5046996;28;20070;-78
2024/03/17 11:04:58;;;;;;;8.05;5.32;;;14.90;99.90;;;;;;5045762;28;20017;-77
2024/03/17 11:07:26;;;;;;;6.35;4.65;;;14.90;99.90;;;;;;5048751;28;20029;-77
2024/03/17 11:09:55;;;;;;;7.18;4.82;;;15.00;99.90;;;;;;5047633;28;20102;-78
2024/03/17 11:12:46;;;;;;;10.40;6.28;;;15.10;99.90;;;;;;5042915;28;20381;-76
2024/03/17 11:15:29;;;;;;;7.93;5.90;;;15.00;99.90;;;;;;5048101;28;20025;-80
2024/03/17 11:18:10;;;;;;;;;;;15.00;99.90;;;;;;5049378;28;20021;-77
2024/03/17 11:20:40;;;;;;;6.35;5.00;;;15.10;99.90;;;;;;5048330;28;19924;-77
2024/03/17 11:23:06;;;;;;;10.88;5.28;;;15.00;99.90;;;;;;5048482;28;20777;-77
2024/03/17 11:25:35;;;;;;;12.60;5.25;;;15.00;99.90;;;;;;5047481;28;20025;-77
2024/03/17 11:28:09;;;;;;;7.45;4.57;;;14.90;99.90;;;;;;5048607;28;20037;-76
2024/03/17 11:30:52;;;;;;;7.70;4.95;;;15.00;99.90;;;;;;5047025;28;20021;-76
2024/03/17 11:33:29;;;;;;;8.65;5.18;;;15.00;99.90;;;;;;5048091;28;20052;-77
2024/03/17 11:36:23;;;;;;;7.72;4.95;;;15.00;99.90;;;;;;5048754;28;20053;-79
2024/03/17 11:39:00;;;;;;;9.32;4.78;;;15.00;99.90;;;;;;5048161;28;20025;-77
2024/03/17 11:41:38;;;;;;;4.88;3.92;;;15.10;99.90;;;;;;5045948;28;20017;-78
2024/03/17 11:44:18;;;;;;;6.32;4.45;;;15.10;99.90;;;;;;5047603;28;20033;-77
2024/03/17 11:46:45;;;;;;;8.27;4.40;;;15.00;99.90;;;;;;5047865;28;20029;-77
2024/03/17 11:49:38;;;;;;;5.75;4.13;;;15.10;99.90;;;;;;5048030;28;20029;-76
2024/03/17 11:52:08;;;;;;;7.00;4.40;;;15.10;99.90;;;;;;5049075;28;20060;-77
2024/03/17 11:54:35;;;;;;;8.88;4.68;;;15.10;99.90;;;;;;5047821;28;20075;-76
2024/03/17 11:57:12;;;;;;;8.52;4.28;;;15.20;99.90;;;;;;5047961;28;20466;-78
2024/03/17 11:59:39;;;;;;;6.60;4.13;;;15.10;99.90;;;;;;5047464;28;20505;-77
2024/03/17 12:02:23;;;;;;;7.47;5.85;;;15.10;99.90;;;;;;5047608;28;20108;-76
2024/03/17 12:04:49;;;;;;;5.63;4.43;;;15.20;99.90;;;;;;5047534;28;20032;-77
2024/03/17 12:07:23;;;;;;;9.50;4.05;;;15.20;99.90;;;;;;5047623;28;20033;-77
2024/03/17 12:09:53;;;;;;;6.90;4.35;;;15.10;99.90;;;;;;5047942;28;20025;-79
2024/03/17 12:12:36;;;;;;;8.73;4.43;;;15.10;99.90;;;;;;5044870;28;20025;-77
2024/03/17 12:15:03;;;;;;;8.20;4.13;;;15.10;99.90;;;;;;5047371;28;20013;-77
2024/03/17 12:17:29;;;;;;;8.45;4.55;;;15.10;99.90;;;;;;5046077;28;20033;-77
2024/03/17 12:19:55;;;;;;;7.93;4.40;;;15.10;99.90;;;;;;5045963;28;20381;-76
2024/03/17 12:22:27;;;;;;;7.35;4.45;;;15.10;99.90;;;;;;5040670;28;20044;-79
2024/03/17 12:24:54;;;;;;;6.90;4.47;;;15.10;99.90;;;;;;5046182;28;20087;-75
2024/03/17 12:27:24;;;;;;;9.20;4.78;;;15.10;99.90;;;;;;5045435;28;20103;-78
2024/03/17 12:29:54;;;;;;;7.45;4.40;;;15.20;99.90;;;;;;5046041;28;20031;-77
2024/03/17 12:32:22;;;;;;;8.13;4.15;;;15.00;99.90;;;;;;5045904;28;20071;-75
2024/03/17 12:34:55;;;;;;;9.73;5.40;;;15.00;99.90;;;;;;5045642;28;20087;-77
2024/03/17 12:37:31;;;;;;;6.82;4.38;;;15.00;99.90;;;;;;5045811;28;20108;-78
2024/03/17 12:39:59;;;;;;;9.65;5.00;;;15.00;99.90;;;;;;5046241;28;20029;-77
2024/03/17 12:42:26;;;;;;;9.45;6.00;;;15.10;99.90;;;;;;5044082;28;20071;-79
2024/03/17 12:44:57;;;;;;;9.68;5.65;;;15.20;99.90;;;;;;5044338;28;20025;-76